<?xml version="1.0" encoding="UTF-8" standalone="no" ?>
<gpx xmlns="http://www.topografix.com/GPX/1/1" xmlns:xsi="http://www.w3.org/2001/XMLSchema-instance" xsi:schemaLocation="http://www.topografix.com/GPX/1/1 http://www.topografix.com/GPX/1/1/gpx.xsd" version="1.1" creator="VisuGPX - https://www.visugpx.com">
  <metadata>
    <name>2021-01-04 le Tanet</name>
    <desc><![CDATA[File with points/tracks from Locus Map/3.49.1]]></desc>
  </metadata>
  <trk>
    <name><![CDATA[2021-01-04 le Tanet]]></name>
    <extensions>
      <line xmlns="http://www.topografix.com/GPX/gpx_style/0/2">
        <color>0000FF</color>
        <opacity>0.59</opacity>
        <width>6.0</width>
      </line>
    </extensions>
    <trkseg>
      <trkpt lat="48.08343" lon="7.05911">
        <ele>1017.82</ele>
        <time>2021-01-04T10:39:55.000Z</time>
      </trkpt>
      <trkpt lat="48.08344" lon="7.05897">
        <ele>1021.01</ele>
        <time>2021-01-04T10:40:38.000Z</time>
      </trkpt>
      <trkpt lat="48.08342" lon="7.05882">
        <ele>1024.41</ele>
        <time>2021-01-04T10:40:45.000Z</time>
      </trkpt>
      <trkpt lat="48.08339" lon="7.05867">
        <ele>1028.24</ele>
        <time>2021-01-04T10:40:53.000Z</time>
      </trkpt>
      <trkpt lat="48.08337" lon="7.05854">
        <ele>1030.59</ele>
        <time>2021-01-04T10:41:02.000Z</time>
      </trkpt>
      <trkpt lat="48.08333" lon="7.05841">
        <ele>1032.18</ele>
        <time>2021-01-04T10:41:11.000Z</time>
      </trkpt>
      <trkpt lat="48.0833" lon="7.05828">
        <ele>1032.04</ele>
        <time>2021-01-04T10:41:22.000Z</time>
      </trkpt>
      <trkpt lat="48.0832" lon="7.05824">
        <ele>1032.84</ele>
        <time>2021-01-04T10:41:31.000Z</time>
      </trkpt>
      <trkpt lat="48.08311" lon="7.05823">
        <ele>1031.48</ele>
        <time>2021-01-04T10:41:39.000Z</time>
      </trkpt>
      <trkpt lat="48.08302" lon="7.05822">
        <ele>1030.72</ele>
        <time>2021-01-04T10:41:47.000Z</time>
      </trkpt>
      <trkpt lat="48.08292" lon="7.0582">
        <ele>1030.14</ele>
        <time>2021-01-04T10:41:56.000Z</time>
      </trkpt>
      <trkpt lat="48.08283" lon="7.05821">
        <ele>1028.91</ele>
        <time>2021-01-04T10:42:03.000Z</time>
      </trkpt>
      <trkpt lat="48.08273" lon="7.05822">
        <ele>1027.16</ele>
        <time>2021-01-04T10:42:11.000Z</time>
      </trkpt>
      <trkpt lat="48.08263" lon="7.05821">
        <ele>1026.31</ele>
        <time>2021-01-04T10:42:19.000Z</time>
      </trkpt>
      <trkpt lat="48.08254" lon="7.0582">
        <ele>1027.34</ele>
        <time>2021-01-04T10:42:26.000Z</time>
      </trkpt>
      <trkpt lat="48.08244" lon="7.05818">
        <ele>1027.74</ele>
        <time>2021-01-04T10:42:34.000Z</time>
      </trkpt>
      <trkpt lat="48.08234" lon="7.05819">
        <ele>1026.82</ele>
        <time>2021-01-04T10:42:42.000Z</time>
      </trkpt>
      <trkpt lat="48.08225" lon="7.05817">
        <ele>1023.06</ele>
        <time>2021-01-04T10:42:58.000Z</time>
      </trkpt>
      <trkpt lat="48.08216" lon="7.05822">
        <ele>1022.34</ele>
        <time>2021-01-04T10:43:09.000Z</time>
      </trkpt>
      <trkpt lat="48.08207" lon="7.05821">
        <ele>1023.2</ele>
        <time>2021-01-04T10:43:24.000Z</time>
      </trkpt>
      <trkpt lat="48.08198" lon="7.05826">
        <ele>1024.34</ele>
        <time>2021-01-04T10:43:34.000Z</time>
      </trkpt>
      <trkpt lat="48.08189" lon="7.0583">
        <ele>1025.06</ele>
        <time>2021-01-04T10:43:46.000Z</time>
      </trkpt>
      <trkpt lat="48.0818" lon="7.05832">
        <ele>1026.18</ele>
        <time>2021-01-04T10:43:58.000Z</time>
      </trkpt>
      <trkpt lat="48.0817" lon="7.05831">
        <ele>1027.65</ele>
        <time>2021-01-04T10:44:09.000Z</time>
      </trkpt>
      <trkpt lat="48.08161" lon="7.05832">
        <ele>1028.75</ele>
        <time>2021-01-04T10:44:20.000Z</time>
      </trkpt>
      <trkpt lat="48.08152" lon="7.05828">
        <ele>1031.31</ele>
        <time>2021-01-04T10:44:30.000Z</time>
      </trkpt>
      <trkpt lat="48.08143" lon="7.05825">
        <ele>1033.86</ele>
        <time>2021-01-04T10:44:39.000Z</time>
      </trkpt>
      <trkpt lat="48.08136" lon="7.05818">
        <ele>1039.17</ele>
        <time>2021-01-04T10:45:05.000Z</time>
      </trkpt>
      <trkpt lat="48.08127" lon="7.0581">
        <ele>1045.12</ele>
        <time>2021-01-04T10:45:11.000Z</time>
      </trkpt>
      <trkpt lat="48.08119" lon="7.05803">
        <ele>1049.11</ele>
        <time>2021-01-04T10:45:21.000Z</time>
      </trkpt>
      <trkpt lat="48.08112" lon="7.05795">
        <ele>1050.94</ele>
        <time>2021-01-04T10:45:30.000Z</time>
      </trkpt>
      <trkpt lat="48.08105" lon="7.05786">
        <ele>1055.7</ele>
        <time>2021-01-04T10:45:52.000Z</time>
      </trkpt>
      <trkpt lat="48.08096" lon="7.05781">
        <ele>1057.95</ele>
        <time>2021-01-04T10:46:03.000Z</time>
      </trkpt>
      <trkpt lat="48.08087" lon="7.05775">
        <ele>1060.54</ele>
        <time>2021-01-04T10:46:14.000Z</time>
      </trkpt>
      <trkpt lat="48.08078" lon="7.05778">
        <ele>1064.15</ele>
        <time>2021-01-04T10:46:33.000Z</time>
      </trkpt>
      <trkpt lat="48.08069" lon="7.05777">
        <ele>1065.64</ele>
        <time>2021-01-04T10:46:43.000Z</time>
      </trkpt>
      <trkpt lat="48.08063" lon="7.05787">
        <ele>1068.09</ele>
        <time>2021-01-04T10:46:59.000Z</time>
      </trkpt>
      <trkpt lat="48.08062" lon="7.05801">
        <ele>1069.47</ele>
        <time>2021-01-04T10:47:12.000Z</time>
      </trkpt>
      <trkpt lat="48.08061" lon="7.05815">
        <ele>1071.47</ele>
        <time>2021-01-04T10:47:27.000Z</time>
      </trkpt>
      <trkpt lat="48.08058" lon="7.05829">
        <ele>1074.42</ele>
        <time>2021-01-04T10:47:42.000Z</time>
      </trkpt>
      <trkpt lat="48.08051" lon="7.05838">
        <ele>1075.18</ele>
        <time>2021-01-04T10:48:10.000Z</time>
      </trkpt>
      <trkpt lat="48.08043" lon="7.05844">
        <ele>1076.48</ele>
        <time>2021-01-04T10:48:26.000Z</time>
      </trkpt>
      <trkpt lat="48.08036" lon="7.05835">
        <ele>1077.84</ele>
        <time>2021-01-04T10:48:36.000Z</time>
      </trkpt>
      <trkpt lat="48.0803" lon="7.05824">
        <ele>1079.65</ele>
        <time>2021-01-04T10:48:48.000Z</time>
      </trkpt>
      <trkpt lat="48.08024" lon="7.05813">
        <ele>1080.82</ele>
        <time>2021-01-04T10:48:58.000Z</time>
      </trkpt>
      <trkpt lat="48.08017" lon="7.05803">
        <ele>1081.38</ele>
        <time>2021-01-04T10:49:07.000Z</time>
      </trkpt>
      <trkpt lat="48.0801" lon="7.05794">
        <ele>1083.47</ele>
        <time>2021-01-04T10:49:22.000Z</time>
      </trkpt>
      <trkpt lat="48.08017" lon="7.05784">
        <ele>1083.58</ele>
        <time>2021-01-04T10:49:39.000Z</time>
      </trkpt>
      <trkpt lat="48.08011" lon="7.05771">
        <ele>1087.96</ele>
        <time>2021-01-04T10:50:59.000Z</time>
      </trkpt>
      <trkpt lat="48.08005" lon="7.0576">
        <ele>1087.68</ele>
        <time>2021-01-04T10:51:08.000Z</time>
      </trkpt>
      <trkpt lat="48.08013" lon="7.05755">
        <ele>1088.67</ele>
        <time>2021-01-04T10:52:03.000Z</time>
      </trkpt>
      <trkpt lat="48.08019" lon="7.05744">
        <ele>1087.79</ele>
        <time>2021-01-04T10:52:17.000Z</time>
      </trkpt>
      <trkpt lat="48.08018" lon="7.05728">
        <ele>1093.18</ele>
        <time>2021-01-04T10:52:47.000Z</time>
      </trkpt>
      <trkpt lat="48.0802" lon="7.05712">
        <ele>1099.08</ele>
        <time>2021-01-04T10:53:20.000Z</time>
      </trkpt>
      <trkpt lat="48.08022" lon="7.05699">
        <ele>1101.46</ele>
        <time>2021-01-04T10:53:40.000Z</time>
      </trkpt>
      <trkpt lat="48.08023" lon="7.05685">
        <ele>1105.33</ele>
        <time>2021-01-04T10:53:56.000Z</time>
      </trkpt>
      <trkpt lat="48.08025" lon="7.05672">
        <ele>1106.77</ele>
        <time>2021-01-04T10:54:11.000Z</time>
      </trkpt>
      <trkpt lat="48.08028" lon="7.05659">
        <ele>1108.4</ele>
        <time>2021-01-04T10:54:35.000Z</time>
      </trkpt>
      <trkpt lat="48.08027" lon="7.05644">
        <ele>1110.37</ele>
        <time>2021-01-04T10:54:57.000Z</time>
      </trkpt>
      <trkpt lat="48.08022" lon="7.05633">
        <ele>1111.79</ele>
        <time>2021-01-04T10:55:08.000Z</time>
      </trkpt>
      <trkpt lat="48.08019" lon="7.05619">
        <ele>1112.68</ele>
        <time>2021-01-04T10:55:23.000Z</time>
      </trkpt>
      <trkpt lat="48.08015" lon="7.05606">
        <ele>1114.57</ele>
        <time>2021-01-04T10:55:36.000Z</time>
      </trkpt>
      <trkpt lat="48.08024" lon="7.05606">
        <ele>1116.27</ele>
        <time>2021-01-04T10:55:53.000Z</time>
      </trkpt>
      <trkpt lat="48.08034" lon="7.05605">
        <ele>1119.54</ele>
        <time>2021-01-04T10:56:06.000Z</time>
      </trkpt>
      <trkpt lat="48.08043" lon="7.05602">
        <ele>1122.04</ele>
        <time>2021-01-04T10:56:21.000Z</time>
      </trkpt>
      <trkpt lat="48.08051" lon="7.05594">
        <ele>1124.07</ele>
        <time>2021-01-04T10:56:39.000Z</time>
      </trkpt>
      <trkpt lat="48.08048" lon="7.05581">
        <ele>1125.87</ele>
        <time>2021-01-04T10:57:10.000Z</time>
      </trkpt>
      <trkpt lat="48.08044" lon="7.05567">
        <ele>1127.54</ele>
        <time>2021-01-04T10:57:20.000Z</time>
      </trkpt>
      <trkpt lat="48.08042" lon="7.05554">
        <ele>1129.95</ele>
        <time>2021-01-04T10:57:36.000Z</time>
      </trkpt>
      <trkpt lat="48.08041" lon="7.0554">
        <ele>1132.76</ele>
        <time>2021-01-04T10:57:55.000Z</time>
      </trkpt>
      <trkpt lat="48.08036" lon="7.05528">
        <ele>1136.54</ele>
        <time>2021-01-04T10:58:11.000Z</time>
      </trkpt>
      <trkpt lat="48.08033" lon="7.05515">
        <ele>1138.57</ele>
        <time>2021-01-04T10:58:25.000Z</time>
      </trkpt>
      <trkpt lat="48.08031" lon="7.05502">
        <ele>1140.14</ele>
        <time>2021-01-04T10:58:39.000Z</time>
      </trkpt>
      <trkpt lat="48.08031" lon="7.05488">
        <ele>1142.37</ele>
        <time>2021-01-04T10:58:53.000Z</time>
      </trkpt>
      <trkpt lat="48.08032" lon="7.05474">
        <ele>1145.15</ele>
        <time>2021-01-04T10:59:17.000Z</time>
      </trkpt>
      <trkpt lat="48.08032" lon="7.05459">
        <ele>1148.45</ele>
        <time>2021-01-04T10:59:31.000Z</time>
      </trkpt>
      <trkpt lat="48.08031" lon="7.05445">
        <ele>1150.97</ele>
        <time>2021-01-04T10:59:46.000Z</time>
      </trkpt>
      <trkpt lat="48.08033" lon="7.05429">
        <ele>1154.06</ele>
        <time>2021-01-04T11:02:15.000Z</time>
      </trkpt>
      <trkpt lat="48.08031" lon="7.05414">
        <ele>1154.75</ele>
        <time>2021-01-04T11:02:28.000Z</time>
      </trkpt>
      <trkpt lat="48.08031" lon="7.054">
        <ele>1156.25</ele>
        <time>2021-01-04T11:02:39.000Z</time>
      </trkpt>
      <trkpt lat="48.08033" lon="7.05386">
        <ele>1157.94</ele>
        <time>2021-01-04T11:02:58.000Z</time>
      </trkpt>
      <trkpt lat="48.08033" lon="7.05372">
        <ele>1160.28</ele>
        <time>2021-01-04T11:03:17.000Z</time>
      </trkpt>
      <trkpt lat="48.08035" lon="7.05358">
        <ele>1160.61</ele>
        <time>2021-01-04T11:03:30.000Z</time>
      </trkpt>
      <trkpt lat="48.08038" lon="7.05344">
        <ele>1162.77</ele>
        <time>2021-01-04T11:03:47.000Z</time>
      </trkpt>
      <trkpt lat="48.08038" lon="7.0533">
        <ele>1163.76</ele>
        <time>2021-01-04T11:04:05.000Z</time>
      </trkpt>
      <trkpt lat="48.08037" lon="7.05316">
        <ele>1165.38</ele>
        <time>2021-01-04T11:04:18.000Z</time>
      </trkpt>
      <trkpt lat="48.08039" lon="7.05303">
        <ele>1169.11</ele>
        <time>2021-01-04T11:04:35.000Z</time>
      </trkpt>
      <trkpt lat="48.08041" lon="7.05289">
        <ele>1173.04</ele>
        <time>2021-01-04T11:04:52.000Z</time>
      </trkpt>
      <trkpt lat="48.08043" lon="7.05275">
        <ele>1176.27</ele>
        <time>2021-01-04T11:05:09.000Z</time>
      </trkpt>
      <trkpt lat="48.08047" lon="7.05263">
        <ele>1178.74</ele>
        <time>2021-01-04T11:05:25.000Z</time>
      </trkpt>
      <trkpt lat="48.08051" lon="7.0525">
        <ele>1181.45</ele>
        <time>2021-01-04T11:05:39.000Z</time>
      </trkpt>
      <trkpt lat="48.08054" lon="7.05237">
        <ele>1183.18</ele>
        <time>2021-01-04T11:05:57.000Z</time>
      </trkpt>
      <trkpt lat="48.08057" lon="7.05225">
        <ele>1185.75</ele>
        <time>2021-01-04T11:06:12.000Z</time>
      </trkpt>
      <trkpt lat="48.08059" lon="7.05212">
        <ele>1188.74</ele>
        <time>2021-01-04T11:06:29.000Z</time>
      </trkpt>
      <trkpt lat="48.08061" lon="7.05198">
        <ele>1191.17</ele>
        <time>2021-01-04T11:06:42.000Z</time>
      </trkpt>
      <trkpt lat="48.08064" lon="7.05185">
        <ele>1192.85</ele>
        <time>2021-01-04T11:06:56.000Z</time>
      </trkpt>
      <trkpt lat="48.08063" lon="7.05171">
        <ele>1195.44</ele>
        <time>2021-01-04T11:07:11.000Z</time>
      </trkpt>
      <trkpt lat="48.08065" lon="7.05157">
        <ele>1197.67</ele>
        <time>2021-01-04T11:07:29.000Z</time>
      </trkpt>
      <trkpt lat="48.08066" lon="7.05144">
        <ele>1199.68</ele>
        <time>2021-01-04T11:07:43.000Z</time>
      </trkpt>
      <trkpt lat="48.08066" lon="7.0513">
        <ele>1201.75</ele>
        <time>2021-01-04T11:07:58.000Z</time>
      </trkpt>
      <trkpt lat="48.08066" lon="7.05116">
        <ele>1203.18</ele>
        <time>2021-01-04T11:08:13.000Z</time>
      </trkpt>
      <trkpt lat="48.08064" lon="7.05102">
        <ele>1204.95</ele>
        <time>2021-01-04T11:08:29.000Z</time>
      </trkpt>
      <trkpt lat="48.08064" lon="7.05088">
        <ele>1206.17</ele>
        <time>2021-01-04T11:08:43.000Z</time>
      </trkpt>
      <trkpt lat="48.08062" lon="7.05074">
        <ele>1206.99</ele>
        <time>2021-01-04T11:08:55.000Z</time>
      </trkpt>
      <trkpt lat="48.08059" lon="7.05061">
        <ele>1207.88</ele>
        <time>2021-01-04T11:09:08.000Z</time>
      </trkpt>
      <trkpt lat="48.08056" lon="7.05047">
        <ele>1207.79</ele>
        <time>2021-01-04T11:09:22.000Z</time>
      </trkpt>
      <trkpt lat="48.08055" lon="7.05033">
        <ele>1208.7</ele>
        <time>2021-01-04T11:09:37.000Z</time>
      </trkpt>
      <trkpt lat="48.0805" lon="7.0502">
        <ele>1209.38</ele>
        <time>2021-01-04T11:09:52.000Z</time>
      </trkpt>
      <trkpt lat="48.08047" lon="7.05007">
        <ele>1210.08</ele>
        <time>2021-01-04T11:10:05.000Z</time>
      </trkpt>
      <trkpt lat="48.08044" lon="7.04994">
        <ele>1211.97</ele>
        <time>2021-01-04T11:10:16.000Z</time>
      </trkpt>
      <trkpt lat="48.08041" lon="7.0498">
        <ele>1213.98</ele>
        <time>2021-01-04T11:10:28.000Z</time>
      </trkpt>
      <trkpt lat="48.08039" lon="7.04967">
        <ele>1215.5</ele>
        <time>2021-01-04T11:10:43.000Z</time>
      </trkpt>
      <trkpt lat="48.08035" lon="7.04954">
        <ele>1216.35</ele>
        <time>2021-01-04T11:10:56.000Z</time>
      </trkpt>
      <trkpt lat="48.08033" lon="7.04941">
        <ele>1217.38</ele>
        <time>2021-01-04T11:11:12.000Z</time>
      </trkpt>
      <trkpt lat="48.0803" lon="7.04927">
        <ele>1218.78</ele>
        <time>2021-01-04T11:11:27.000Z</time>
      </trkpt>
      <trkpt lat="48.08027" lon="7.04915">
        <ele>1218.91</ele>
        <time>2021-01-04T11:11:39.000Z</time>
      </trkpt>
      <trkpt lat="48.08026" lon="7.04901">
        <ele>1220.28</ele>
        <time>2021-01-04T11:11:55.000Z</time>
      </trkpt>
      <trkpt lat="48.08023" lon="7.04887">
        <ele>1222.77</ele>
        <time>2021-01-04T11:12:08.000Z</time>
      </trkpt>
      <trkpt lat="48.08021" lon="7.04872">
        <ele>1224.11</ele>
        <time>2021-01-04T11:12:22.000Z</time>
      </trkpt>
      <trkpt lat="48.08019" lon="7.04859">
        <ele>1225.23</ele>
        <time>2021-01-04T11:12:33.000Z</time>
      </trkpt>
      <trkpt lat="48.08018" lon="7.04844">
        <ele>1227.35</ele>
        <time>2021-01-04T11:12:46.000Z</time>
      </trkpt>
      <trkpt lat="48.08017" lon="7.0483">
        <ele>1229.07</ele>
        <time>2021-01-04T11:12:58.000Z</time>
      </trkpt>
      <trkpt lat="48.08015" lon="7.04816">
        <ele>1230.48</ele>
        <time>2021-01-04T11:13:10.000Z</time>
      </trkpt>
      <trkpt lat="48.08017" lon="7.04803">
        <ele>1231.01</ele>
        <time>2021-01-04T11:13:22.000Z</time>
      </trkpt>
      <trkpt lat="48.08015" lon="7.04789">
        <ele>1231.14</ele>
        <time>2021-01-04T11:13:33.000Z</time>
      </trkpt>
      <trkpt lat="48.08015" lon="7.04775">
        <ele>1231.94</ele>
        <time>2021-01-04T11:13:45.000Z</time>
      </trkpt>
      <trkpt lat="48.08012" lon="7.04762">
        <ele>1234.54</ele>
        <time>2021-01-04T11:13:58.000Z</time>
      </trkpt>
      <trkpt lat="48.08017" lon="7.04776">
        <ele>1233.82</ele>
        <time>2021-01-04T11:20:37.000Z</time>
      </trkpt>
      <trkpt lat="48.08018" lon="7.0481">
        <ele>1233.88</ele>
        <time>2021-01-04T11:20:42.000Z</time>
      </trkpt>
      <trkpt lat="48.08017" lon="7.04845">
        <ele>1234.19</ele>
        <time>2021-01-04T11:20:47.000Z</time>
      </trkpt>
      <trkpt lat="48.08022" lon="7.04876">
        <ele>1234.07</ele>
        <time>2021-01-04T11:20:52.000Z</time>
      </trkpt>
      <trkpt lat="48.08026" lon="7.04908">
        <ele>1233.17</ele>
        <time>2021-01-04T11:20:57.000Z</time>
      </trkpt>
      <trkpt lat="48.08031" lon="7.04941">
        <ele>1232.06</ele>
        <time>2021-01-04T11:21:02.000Z</time>
      </trkpt>
      <trkpt lat="48.08038" lon="7.04974">
        <ele>1229.82</ele>
        <time>2021-01-04T11:21:07.000Z</time>
      </trkpt>
      <trkpt lat="48.08045" lon="7.05006">
        <ele>1226.2</ele>
        <time>2021-01-04T11:21:12.000Z</time>
      </trkpt>
      <trkpt lat="48.08052" lon="7.05038">
        <ele>1221.82</ele>
        <time>2021-01-04T11:21:17.000Z</time>
      </trkpt>
      <trkpt lat="48.08055" lon="7.05057">
        <ele>1215.08</ele>
        <time>2021-01-04T11:21:22.000Z</time>
      </trkpt>
      <trkpt lat="48.08058" lon="7.05091">
        <ele>1211.18</ele>
        <time>2021-01-04T11:21:27.000Z</time>
      </trkpt>
      <trkpt lat="48.08058" lon="7.0512">
        <ele>1207.62</ele>
        <time>2021-01-04T11:21:32.000Z</time>
      </trkpt>
      <trkpt lat="48.08062" lon="7.05138">
        <ele>1204.32</ele>
        <time>2021-01-04T11:21:37.000Z</time>
      </trkpt>
      <trkpt lat="48.08053" lon="7.05141">
        <ele>1197.09</ele>
        <time>2021-01-04T11:22:05.000Z</time>
      </trkpt>
      <trkpt lat="48.08037" lon="7.05153">
        <ele>1196.4</ele>
        <time>2021-01-04T11:22:10.000Z</time>
      </trkpt>
      <trkpt lat="48.08019" lon="7.05166">
        <ele>1193.4</ele>
        <time>2021-01-04T11:22:15.000Z</time>
      </trkpt>
      <trkpt lat="48.07998" lon="7.05181">
        <ele>1189.77</ele>
        <time>2021-01-04T11:22:20.000Z</time>
      </trkpt>
      <trkpt lat="48.07983" lon="7.05206">
        <ele>1182.49</ele>
        <time>2021-01-04T11:22:25.000Z</time>
      </trkpt>
      <trkpt lat="48.07965" lon="7.05221">
        <ele>1174.6</ele>
        <time>2021-01-04T11:22:30.000Z</time>
      </trkpt>
      <trkpt lat="48.0795" lon="7.0521">
        <ele>1165.55</ele>
        <time>2021-01-04T11:22:35.000Z</time>
      </trkpt>
      <trkpt lat="48.07941" lon="7.05207">
        <ele>1156.62</ele>
        <time>2021-01-04T11:22:41.000Z</time>
      </trkpt>
      <trkpt lat="48.07932" lon="7.05216">
        <ele>1150.06</ele>
        <time>2021-01-04T11:23:11.000Z</time>
      </trkpt>
      <trkpt lat="48.07927" lon="7.05231">
        <ele>1149.06</ele>
        <time>2021-01-04T11:23:32.000Z</time>
      </trkpt>
      <trkpt lat="48.07909" lon="7.05253">
        <ele>1148.56</ele>
        <time>2021-01-04T11:23:37.000Z</time>
      </trkpt>
      <trkpt lat="48.07891" lon="7.05273">
        <ele>1147.12</ele>
        <time>2021-01-04T11:23:42.000Z</time>
      </trkpt>
      <trkpt lat="48.07873" lon="7.05279">
        <ele>1144.6</ele>
        <time>2021-01-04T11:23:47.000Z</time>
      </trkpt>
      <trkpt lat="48.0785" lon="7.05303">
        <ele>1140.06</ele>
        <time>2021-01-04T11:23:52.000Z</time>
      </trkpt>
      <trkpt lat="48.07824" lon="7.05321">
        <ele>1129.73</ele>
        <time>2021-01-04T11:23:57.000Z</time>
      </trkpt>
      <trkpt lat="48.07804" lon="7.0533">
        <ele>1117.6</ele>
        <time>2021-01-04T11:24:02.000Z</time>
      </trkpt>
      <trkpt lat="48.07784" lon="7.0533">
        <ele>1106.84</ele>
        <time>2021-01-04T11:24:07.000Z</time>
      </trkpt>
      <trkpt lat="48.07763" lon="7.05325">
        <ele>1098.74</ele>
        <time>2021-01-04T11:24:12.000Z</time>
      </trkpt>
      <trkpt lat="48.07748" lon="7.05332">
        <ele>1092.16</ele>
        <time>2021-01-04T11:24:17.000Z</time>
      </trkpt>
      <trkpt lat="48.07737" lon="7.05335">
        <ele>1092.34</ele>
        <time>2021-01-04T11:24:49.000Z</time>
      </trkpt>
      <trkpt lat="48.0772" lon="7.05355">
        <ele>1092.36</ele>
        <time>2021-01-04T11:24:54.000Z</time>
      </trkpt>
      <trkpt lat="48.07694" lon="7.05366">
        <ele>1088.15</ele>
        <time>2021-01-04T11:24:59.000Z</time>
      </trkpt>
      <trkpt lat="48.07669" lon="7.05384">
        <ele>1084.19</ele>
        <time>2021-01-04T11:25:04.000Z</time>
      </trkpt>
      <trkpt lat="48.07646" lon="7.05401">
        <ele>1079.01</ele>
        <time>2021-01-04T11:25:09.000Z</time>
      </trkpt>
      <trkpt lat="48.07624" lon="7.05412">
        <ele>1075.25</ele>
        <time>2021-01-04T11:25:14.000Z</time>
      </trkpt>
      <trkpt lat="48.07609" lon="7.05421">
        <ele>1071.45</ele>
        <time>2021-01-04T11:25:19.000Z</time>
      </trkpt>
      <trkpt lat="48.07588" lon="7.05427">
        <ele>1069.09</ele>
        <time>2021-01-04T11:25:24.000Z</time>
      </trkpt>
      <trkpt lat="48.07573" lon="7.05446">
        <ele>1066.86</ele>
        <time>2021-01-04T11:25:29.000Z</time>
      </trkpt>
      <trkpt lat="48.0757" lon="7.05461">
        <ele>1067.01</ele>
        <time>2021-01-04T11:26:20.000Z</time>
      </trkpt>
      <trkpt lat="48.07556" lon="7.05489">
        <ele>1064.56</ele>
        <time>2021-01-04T11:26:25.000Z</time>
      </trkpt>
      <trkpt lat="48.07559" lon="7.05525">
        <ele>1060.71</ele>
        <time>2021-01-04T11:26:30.000Z</time>
      </trkpt>
      <trkpt lat="48.07572" lon="7.05559">
        <ele>1055.47</ele>
        <time>2021-01-04T11:26:35.000Z</time>
      </trkpt>
      <trkpt lat="48.0758" lon="7.05597">
        <ele>1048.7</ele>
        <time>2021-01-04T11:26:40.000Z</time>
      </trkpt>
      <trkpt lat="48.07584" lon="7.05639">
        <ele>1040.75</ele>
        <time>2021-01-04T11:26:45.000Z</time>
      </trkpt>
      <trkpt lat="48.0759" lon="7.05658">
        <ele>1033.04</ele>
        <time>2021-01-04T11:26:50.000Z</time>
      </trkpt>
      <trkpt lat="48.07586" lon="7.05644">
        <ele>1031.96</ele>
        <time>2021-01-04T11:33:33.000Z</time>
      </trkpt>
      <trkpt lat="48.0758" lon="7.0563">
        <ele>1032.46</ele>
        <time>2021-01-04T11:33:47.000Z</time>
      </trkpt>
      <trkpt lat="48.07572" lon="7.05618">
        <ele>1031.76</ele>
        <time>2021-01-04T11:34:06.000Z</time>
      </trkpt>
      <trkpt lat="48.07564" lon="7.05606">
        <ele>1031.33</ele>
        <time>2021-01-04T11:34:25.000Z</time>
      </trkpt>
      <trkpt lat="48.07554" lon="7.056">
        <ele>1031.78</ele>
        <time>2021-01-04T11:34:47.000Z</time>
      </trkpt>
      <trkpt lat="48.07543" lon="7.05598">
        <ele>1032.3</ele>
        <time>2021-01-04T11:35:08.000Z</time>
      </trkpt>
      <trkpt lat="48.07534" lon="7.05592">
        <ele>1032.1</ele>
        <time>2021-01-04T11:35:26.000Z</time>
      </trkpt>
      <trkpt lat="48.07523" lon="7.05584">
        <ele>1031.98</ele>
        <time>2021-01-04T11:35:43.000Z</time>
      </trkpt>
      <trkpt lat="48.07516" lon="7.05571">
        <ele>1032.93</ele>
        <time>2021-01-04T11:36:01.000Z</time>
      </trkpt>
      <trkpt lat="48.07525" lon="7.05563">
        <ele>1036.04</ele>
        <time>2021-01-04T11:36:56.000Z</time>
      </trkpt>
      <trkpt lat="48.07535" lon="7.05559">
        <ele>1044.13</ele>
        <time>2021-01-04T11:37:47.000Z</time>
      </trkpt>
      <trkpt lat="48.07542" lon="7.05548">
        <ele>1044.9</ele>
        <time>2021-01-04T11:38:18.000Z</time>
      </trkpt>
      <trkpt lat="48.0755" lon="7.05537">
        <ele>1046.1</ele>
        <time>2021-01-04T11:38:44.000Z</time>
      </trkpt>
      <trkpt lat="48.07557" lon="7.05524">
        <ele>1048.81</ele>
        <time>2021-01-04T11:39:02.000Z</time>
      </trkpt>
      <trkpt lat="48.07562" lon="7.05511">
        <ele>1051.38</ele>
        <time>2021-01-04T11:39:24.000Z</time>
      </trkpt>
      <trkpt lat="48.0757" lon="7.055">
        <ele>1053.73</ele>
        <time>2021-01-04T11:39:42.000Z</time>
      </trkpt>
      <trkpt lat="48.07565" lon="7.05486">
        <ele>1054.06</ele>
        <time>2021-01-04T11:40:00.000Z</time>
      </trkpt>
      <trkpt lat="48.07559" lon="7.05471">
        <ele>1052.83</ele>
        <time>2021-01-04T11:40:17.000Z</time>
      </trkpt>
      <trkpt lat="48.07565" lon="7.05459">
        <ele>1054.48</ele>
        <time>2021-01-04T11:42:14.000Z</time>
      </trkpt>
      <trkpt lat="48.07575" lon="7.05449">
        <ele>1055.51</ele>
        <time>2021-01-04T11:42:36.000Z</time>
      </trkpt>
      <trkpt lat="48.07586" lon="7.05445">
        <ele>1055.98</ele>
        <time>2021-01-04T11:42:52.000Z</time>
      </trkpt>
      <trkpt lat="48.07596" lon="7.05443">
        <ele>1057.48</ele>
        <time>2021-01-04T11:43:11.000Z</time>
      </trkpt>
      <trkpt lat="48.07608" lon="7.05441">
        <ele>1059.13</ele>
        <time>2021-01-04T11:43:24.000Z</time>
      </trkpt>
      <trkpt lat="48.07619" lon="7.05439">
        <ele>1061.13</ele>
        <time>2021-01-04T11:43:40.000Z</time>
      </trkpt>
      <trkpt lat="48.07631" lon="7.05434">
        <ele>1062.08</ele>
        <time>2021-01-04T11:43:56.000Z</time>
      </trkpt>
      <trkpt lat="48.07641" lon="7.05427">
        <ele>1061.86</ele>
        <time>2021-01-04T11:44:14.000Z</time>
      </trkpt>
      <trkpt lat="48.07651" lon="7.05419">
        <ele>1061.58</ele>
        <time>2021-01-04T11:44:30.000Z</time>
      </trkpt>
      <trkpt lat="48.0766" lon="7.05412">
        <ele>1062.13</ele>
        <time>2021-01-04T11:44:45.000Z</time>
      </trkpt>
      <trkpt lat="48.07671" lon="7.05403">
        <ele>1062.71</ele>
        <time>2021-01-04T11:45:00.000Z</time>
      </trkpt>
      <trkpt lat="48.0768" lon="7.05393">
        <ele>1063.21</ele>
        <time>2021-01-04T11:45:19.000Z</time>
      </trkpt>
      <trkpt lat="48.07689" lon="7.0538">
        <ele>1062.31</ele>
        <time>2021-01-04T11:45:36.000Z</time>
      </trkpt>
      <trkpt lat="48.07696" lon="7.05367">
        <ele>1064.18</ele>
        <time>2021-01-04T11:45:53.000Z</time>
      </trkpt>
      <trkpt lat="48.077" lon="7.05352">
        <ele>1067.46</ele>
        <time>2021-01-04T11:46:10.000Z</time>
      </trkpt>
      <trkpt lat="48.07711" lon="7.05352">
        <ele>1072.88</ele>
        <time>2021-01-04T11:46:41.000Z</time>
      </trkpt>
      <trkpt lat="48.07722" lon="7.05345">
        <ele>1076.71</ele>
        <time>2021-01-04T11:46:55.000Z</time>
      </trkpt>
      <trkpt lat="48.07732" lon="7.05337">
        <ele>1080.03</ele>
        <time>2021-01-04T11:47:11.000Z</time>
      </trkpt>
      <trkpt lat="48.07742" lon="7.0533">
        <ele>1083.11</ele>
        <time>2021-01-04T11:47:29.000Z</time>
      </trkpt>
      <trkpt lat="48.07753" lon="7.05331">
        <ele>1086.56</ele>
        <time>2021-01-04T11:47:48.000Z</time>
      </trkpt>
      <trkpt lat="48.07764" lon="7.05332">
        <ele>1089.56</ele>
        <time>2021-01-04T11:48:03.000Z</time>
      </trkpt>
      <trkpt lat="48.07775" lon="7.05329">
        <ele>1092.76</ele>
        <time>2021-01-04T11:48:20.000Z</time>
      </trkpt>
      <trkpt lat="48.0779" lon="7.05314">
        <ele>1100.98</ele>
        <time>2021-01-04T11:50:06.000Z</time>
      </trkpt>
      <trkpt lat="48.078" lon="7.05308">
        <ele>1105.61</ele>
        <time>2021-01-04T11:50:16.000Z</time>
      </trkpt>
      <trkpt lat="48.0781" lon="7.053">
        <ele>1110.11</ele>
        <time>2021-01-04T11:50:31.000Z</time>
      </trkpt>
      <trkpt lat="48.07821" lon="7.05293">
        <ele>1113.73</ele>
        <time>2021-01-04T11:50:46.000Z</time>
      </trkpt>
      <trkpt lat="48.07831" lon="7.05286">
        <ele>1116.81</ele>
        <time>2021-01-04T11:51:01.000Z</time>
      </trkpt>
      <trkpt lat="48.07841" lon="7.05277">
        <ele>1118.88</ele>
        <time>2021-01-04T11:51:25.000Z</time>
      </trkpt>
      <trkpt lat="48.07831" lon="7.05279">
        <ele>1118.81</ele>
        <time>2021-01-04T11:51:38.000Z</time>
      </trkpt>
      <trkpt lat="48.07819" lon="7.05263">
        <ele>1116.15</ele>
        <time>2021-01-04T11:51:43.000Z</time>
      </trkpt>
      <trkpt lat="48.07832" lon="7.05274">
        <ele>1114.01</ele>
        <time>2021-01-04T11:51:57.000Z</time>
      </trkpt>
      <trkpt lat="48.07837" lon="7.05256">
        <ele>1117.78</ele>
        <time>2021-01-04T11:52:30.000Z</time>
      </trkpt>
      <trkpt lat="48.07839" lon="7.0524">
        <ele>1119.73</ele>
        <time>2021-01-04T11:52:47.000Z</time>
      </trkpt>
      <trkpt lat="48.0784" lon="7.05223">
        <ele>1119.93</ele>
        <time>2021-01-04T11:53:01.000Z</time>
      </trkpt>
      <trkpt lat="48.0784" lon="7.05205">
        <ele>1120.08</ele>
        <time>2021-01-04T11:53:21.000Z</time>
      </trkpt>
      <trkpt lat="48.07839" lon="7.05191">
        <ele>1122.96</ele>
        <time>2021-01-04T11:55:50.000Z</time>
      </trkpt>
      <trkpt lat="48.07846" lon="7.05204">
        <ele>1120.02</ele>
        <time>2021-01-04T11:55:58.000Z</time>
      </trkpt>
      <trkpt lat="48.07837" lon="7.05205">
        <ele>1118.1</ele>
        <time>2021-01-04T11:56:07.000Z</time>
      </trkpt>
      <trkpt lat="48.07832" lon="7.05177">
        <ele>1116.76</ele>
        <time>2021-01-04T11:56:12.000Z</time>
      </trkpt>
      <trkpt lat="48.07838" lon="7.05163">
        <ele>1118.83</ele>
        <time>2021-01-04T11:56:23.000Z</time>
      </trkpt>
      <trkpt lat="48.07842" lon="7.05149">
        <ele>1125.33</ele>
        <time>2021-01-04T11:56:41.000Z</time>
      </trkpt>
      <trkpt lat="48.07848" lon="7.05129">
        <ele>1130.18</ele>
        <time>2021-01-04T11:57:01.000Z</time>
      </trkpt>
      <trkpt lat="48.07848" lon="7.05113">
        <ele>1131.73</ele>
        <time>2021-01-04T11:57:21.000Z</time>
      </trkpt>
      <trkpt lat="48.07849" lon="7.05097">
        <ele>1132.16</ele>
        <time>2021-01-04T11:57:34.000Z</time>
      </trkpt>
      <trkpt lat="48.07844" lon="7.0508">
        <ele>1132.76</ele>
        <time>2021-01-04T11:57:49.000Z</time>
      </trkpt>
      <trkpt lat="48.07834" lon="7.0507">
        <ele>1133.26</ele>
        <time>2021-01-04T11:58:03.000Z</time>
      </trkpt>
      <trkpt lat="48.07824" lon="7.05059">
        <ele>1133.38</ele>
        <time>2021-01-04T11:58:21.000Z</time>
      </trkpt>
      <trkpt lat="48.07816" lon="7.05047">
        <ele>1132.08</ele>
        <time>2021-01-04T11:58:37.000Z</time>
      </trkpt>
      <trkpt lat="48.07809" lon="7.05033">
        <ele>1130.91</ele>
        <time>2021-01-04T11:58:52.000Z</time>
      </trkpt>
      <trkpt lat="48.07804" lon="7.05019">
        <ele>1131.31</ele>
        <time>2021-01-04T11:59:06.000Z</time>
      </trkpt>
      <trkpt lat="48.07798" lon="7.05003">
        <ele>1133.08</ele>
        <time>2021-01-04T11:59:27.000Z</time>
      </trkpt>
      <trkpt lat="48.07794" lon="7.04986">
        <ele>1133.43</ele>
        <time>2021-01-04T11:59:44.000Z</time>
      </trkpt>
      <trkpt lat="48.07788" lon="7.04971">
        <ele>1133.78</ele>
        <time>2021-01-04T11:59:59.000Z</time>
      </trkpt>
      <trkpt lat="48.07784" lon="7.04955">
        <ele>1134.06</ele>
        <time>2021-01-04T12:00:16.000Z</time>
      </trkpt>
      <trkpt lat="48.07784" lon="7.04941">
        <ele>1135.28</ele>
        <time>2021-01-04T12:00:35.000Z</time>
      </trkpt>
      <trkpt lat="48.07783" lon="7.04924">
        <ele>1136.33</ele>
        <time>2021-01-04T12:00:50.000Z</time>
      </trkpt>
      <trkpt lat="48.07779" lon="7.04907">
        <ele>1139.18</ele>
        <time>2021-01-04T12:01:06.000Z</time>
      </trkpt>
      <trkpt lat="48.07779" lon="7.04889">
        <ele>1141.33</ele>
        <time>2021-01-04T12:01:22.000Z</time>
      </trkpt>
      <trkpt lat="48.0778" lon="7.04873">
        <ele>1142.46</ele>
        <time>2021-01-04T12:01:41.000Z</time>
      </trkpt>
      <trkpt lat="48.0778" lon="7.04856">
        <ele>1143.18</ele>
        <time>2021-01-04T12:01:54.000Z</time>
      </trkpt>
      <trkpt lat="48.07779" lon="7.04838">
        <ele>1144.33</ele>
        <time>2021-01-04T12:02:10.000Z</time>
      </trkpt>
      <trkpt lat="48.07781" lon="7.04819">
        <ele>1146.18</ele>
        <time>2021-01-04T12:02:24.000Z</time>
      </trkpt>
      <trkpt lat="48.07784" lon="7.04801">
        <ele>1147.66</ele>
        <time>2021-01-04T12:02:38.000Z</time>
      </trkpt>
      <trkpt lat="48.07786" lon="7.04784">
        <ele>1148.68</ele>
        <time>2021-01-04T12:02:53.000Z</time>
      </trkpt>
      <trkpt lat="48.0779" lon="7.04768">
        <ele>1148.61</ele>
        <time>2021-01-04T12:03:11.000Z</time>
      </trkpt>
      <trkpt lat="48.07792" lon="7.0475">
        <ele>1148.16</ele>
        <time>2021-01-04T12:03:27.000Z</time>
      </trkpt>
      <trkpt lat="48.07792" lon="7.04733">
        <ele>1148.56</ele>
        <time>2021-01-04T12:03:45.000Z</time>
      </trkpt>
      <trkpt lat="48.07794" lon="7.04717">
        <ele>1151.13</ele>
        <time>2021-01-04T12:04:03.000Z</time>
      </trkpt>
      <trkpt lat="48.07797" lon="7.047">
        <ele>1154.26</ele>
        <time>2021-01-04T12:04:18.000Z</time>
      </trkpt>
      <trkpt lat="48.07799" lon="7.04683">
        <ele>1157.18</ele>
        <time>2021-01-04T12:04:36.000Z</time>
      </trkpt>
      <trkpt lat="48.07801" lon="7.04668">
        <ele>1158.58</ele>
        <time>2021-01-04T12:04:50.000Z</time>
      </trkpt>
      <trkpt lat="48.07803" lon="7.04651">
        <ele>1160.01</ele>
        <time>2021-01-04T12:05:05.000Z</time>
      </trkpt>
      <trkpt lat="48.07803" lon="7.04635">
        <ele>1160.63</ele>
        <time>2021-01-04T12:05:23.000Z</time>
      </trkpt>
      <trkpt lat="48.07802" lon="7.04617">
        <ele>1162.46</ele>
        <time>2021-01-04T12:05:37.000Z</time>
      </trkpt>
      <trkpt lat="48.07794" lon="7.04611">
        <ele>1165.45</ele>
        <time>2021-01-04T12:05:55.000Z</time>
      </trkpt>
      <trkpt lat="48.078" lon="7.04622">
        <ele>1164.59</ele>
        <time>2021-01-04T12:06:15.000Z</time>
      </trkpt>
      <trkpt lat="48.07802" lon="7.04639">
        <ele>1175.61</ele>
        <time>2021-01-04T12:07:35.000Z</time>
      </trkpt>
      <trkpt lat="48.07808" lon="7.04654">
        <ele>1176.01</ele>
        <time>2021-01-04T12:07:54.000Z</time>
      </trkpt>
      <trkpt lat="48.0781" lon="7.04671">
        <ele>1175.66</ele>
        <time>2021-01-04T12:08:09.000Z</time>
      </trkpt>
      <trkpt lat="48.07818" lon="7.04683">
        <ele>1175.93</ele>
        <time>2021-01-04T12:08:25.000Z</time>
      </trkpt>
      <trkpt lat="48.07823" lon="7.04699">
        <ele>1176.16</ele>
        <time>2021-01-04T12:08:41.000Z</time>
      </trkpt>
      <trkpt lat="48.07829" lon="7.04715">
        <ele>1175.13</ele>
        <time>2021-01-04T12:09:00.000Z</time>
      </trkpt>
      <trkpt lat="48.07836" lon="7.0473">
        <ele>1173.86</ele>
        <time>2021-01-04T12:09:14.000Z</time>
      </trkpt>
      <trkpt lat="48.07836" lon="7.04748">
        <ele>1173.03</ele>
        <time>2021-01-04T12:09:29.000Z</time>
      </trkpt>
      <trkpt lat="48.07843" lon="7.04762">
        <ele>1172.08</ele>
        <time>2021-01-04T12:09:45.000Z</time>
      </trkpt>
      <trkpt lat="48.07849" lon="7.04777">
        <ele>1171.26</ele>
        <time>2021-01-04T12:10:01.000Z</time>
      </trkpt>
      <trkpt lat="48.07856" lon="7.04793">
        <ele>1169.21</ele>
        <time>2021-01-04T12:10:18.000Z</time>
      </trkpt>
      <trkpt lat="48.07861" lon="7.04809">
        <ele>1168.63</ele>
        <time>2021-01-04T12:10:34.000Z</time>
      </trkpt>
      <trkpt lat="48.07865" lon="7.04825">
        <ele>1168.71</ele>
        <time>2021-01-04T12:10:49.000Z</time>
      </trkpt>
      <trkpt lat="48.07872" lon="7.04842">
        <ele>1169.83</ele>
        <time>2021-01-04T12:11:03.000Z</time>
      </trkpt>
      <trkpt lat="48.07882" lon="7.04852">
        <ele>1169.71</ele>
        <time>2021-01-04T12:11:17.000Z</time>
      </trkpt>
      <trkpt lat="48.07889" lon="7.04865">
        <ele>1169.76</ele>
        <time>2021-01-04T12:11:34.000Z</time>
      </trkpt>
      <trkpt lat="48.07897" lon="7.04878">
        <ele>1170.63</ele>
        <time>2021-01-04T12:11:48.000Z</time>
      </trkpt>
      <trkpt lat="48.07907" lon="7.04885">
        <ele>1170.31</ele>
        <time>2021-01-04T12:12:04.000Z</time>
      </trkpt>
      <trkpt lat="48.07915" lon="7.04894">
        <ele>1170.86</ele>
        <time>2021-01-04T12:12:20.000Z</time>
      </trkpt>
      <trkpt lat="48.07923" lon="7.04907">
        <ele>1172.13</ele>
        <time>2021-01-04T12:12:38.000Z</time>
      </trkpt>
      <trkpt lat="48.07931" lon="7.04919">
        <ele>1173.23</ele>
        <time>2021-01-04T12:12:52.000Z</time>
      </trkpt>
      <trkpt lat="48.07943" lon="7.0493">
        <ele>1175.98</ele>
        <time>2021-01-04T12:13:03.000Z</time>
      </trkpt>
      <trkpt lat="48.07952" lon="7.04944">
        <ele>1179.58</ele>
        <time>2021-01-04T12:13:19.000Z</time>
      </trkpt>
      <trkpt lat="48.0796" lon="7.04957">
        <ele>1182.06</ele>
        <time>2021-01-04T12:13:36.000Z</time>
      </trkpt>
      <trkpt lat="48.07969" lon="7.04969">
        <ele>1183.11</ele>
        <time>2021-01-04T12:13:52.000Z</time>
      </trkpt>
      <trkpt lat="48.07979" lon="7.0498">
        <ele>1183.71</ele>
        <time>2021-01-04T12:14:12.000Z</time>
      </trkpt>
      <trkpt lat="48.07989" lon="7.04988">
        <ele>1183.86</ele>
        <time>2021-01-04T12:14:27.000Z</time>
      </trkpt>
      <trkpt lat="48.07996" lon="7.05002">
        <ele>1184.36</ele>
        <time>2021-01-04T12:14:41.000Z</time>
      </trkpt>
      <trkpt lat="48.08004" lon="7.05015">
        <ele>1186.13</ele>
        <time>2021-01-04T12:14:56.000Z</time>
      </trkpt>
      <trkpt lat="48.08014" lon="7.05015">
        <ele>1188.5</ele>
        <time>2021-01-04T12:15:01.000Z</time>
      </trkpt>
      <trkpt lat="48.08018" lon="7.05028">
        <ele>1187.78</ele>
        <time>2021-01-04T12:15:25.000Z</time>
      </trkpt>
      <trkpt lat="48.08031" lon="7.05033">
        <ele>1189.43</ele>
        <time>2021-01-04T12:15:37.000Z</time>
      </trkpt>
      <trkpt lat="48.0804" lon="7.05039">
        <ele>1194.61</ele>
        <time>2021-01-04T12:15:44.000Z</time>
      </trkpt>
      <trkpt lat="48.08049" lon="7.05043">
        <ele>1201.16</ele>
        <time>2021-01-04T12:15:52.000Z</time>
      </trkpt>
      <trkpt lat="48.0806" lon="7.05048">
        <ele>1205.31</ele>
        <time>2021-01-04T12:16:01.000Z</time>
      </trkpt>
      <trkpt lat="48.08067" lon="7.05054">
        <ele>1208.83</ele>
        <time>2021-01-04T12:16:11.000Z</time>
      </trkpt>
      <trkpt lat="48.08077" lon="7.05058">
        <ele>1209.7</ele>
        <time>2021-01-04T12:16:24.000Z</time>
      </trkpt>
      <trkpt lat="48.08086" lon="7.05061">
        <ele>1210.7</ele>
        <time>2021-01-04T12:16:36.000Z</time>
      </trkpt>
      <trkpt lat="48.081" lon="7.05064">
        <ele>1211.71</ele>
        <time>2021-01-04T12:16:54.000Z</time>
      </trkpt>
      <trkpt lat="48.08109" lon="7.05065">
        <ele>1212.28</ele>
        <time>2021-01-04T12:17:05.000Z</time>
      </trkpt>
      <trkpt lat="48.0812" lon="7.05065">
        <ele>1213.08</ele>
        <time>2021-01-04T12:17:17.000Z</time>
      </trkpt>
      <trkpt lat="48.08137" lon="7.0506">
        <ele>1212.36</ele>
        <time>2021-01-04T12:17:37.000Z</time>
      </trkpt>
      <trkpt lat="48.08148" lon="7.05053">
        <ele>1213.16</ele>
        <time>2021-01-04T12:17:50.000Z</time>
      </trkpt>
      <trkpt lat="48.08156" lon="7.05045">
        <ele>1213.3</ele>
        <time>2021-01-04T12:17:58.000Z</time>
      </trkpt>
      <trkpt lat="48.08163" lon="7.05037">
        <ele>1213.56</ele>
        <time>2021-01-04T12:18:08.000Z</time>
      </trkpt>
      <trkpt lat="48.08172" lon="7.0503">
        <ele>1214.38</ele>
        <time>2021-01-04T12:18:19.000Z</time>
      </trkpt>
      <trkpt lat="48.08161" lon="7.05021">
        <ele>1214.32</ele>
        <time>2021-01-04T12:18:40.000Z</time>
      </trkpt>
      <trkpt lat="48.08171" lon="7.0503">
        <ele>1209.94</ele>
        <time>2021-01-04T12:19:08.000Z</time>
      </trkpt>
      <trkpt lat="48.08182" lon="7.05034">
        <ele>1210.81</ele>
        <time>2021-01-04T12:19:13.000Z</time>
      </trkpt>
      <trkpt lat="48.08174" lon="7.05028">
        <ele>1213.67</ele>
        <time>2021-01-04T12:19:33.000Z</time>
      </trkpt>
      <trkpt lat="48.08183" lon="7.05026">
        <ele>1214.04</ele>
        <time>2021-01-04T12:20:17.000Z</time>
      </trkpt>
      <trkpt lat="48.08188" lon="7.05043">
        <ele>1221.09</ele>
        <time>2021-01-04T12:22:59.000Z</time>
      </trkpt>
      <trkpt lat="48.08196" lon="7.05057">
        <ele>1221.84</ele>
        <time>2021-01-04T12:23:13.000Z</time>
      </trkpt>
      <trkpt lat="48.08205" lon="7.0507">
        <ele>1220.66</ele>
        <time>2021-01-04T12:23:27.000Z</time>
      </trkpt>
      <trkpt lat="48.08213" lon="7.05085">
        <ele>1219.14</ele>
        <time>2021-01-04T12:23:41.000Z</time>
      </trkpt>
      <trkpt lat="48.0822" lon="7.05099">
        <ele>1218.06</ele>
        <time>2021-01-04T12:23:55.000Z</time>
      </trkpt>
      <trkpt lat="48.08228" lon="7.05113">
        <ele>1217.74</ele>
        <time>2021-01-04T12:24:13.000Z</time>
      </trkpt>
      <trkpt lat="48.08234" lon="7.05128">
        <ele>1218.84</ele>
        <time>2021-01-04T12:24:28.000Z</time>
      </trkpt>
      <trkpt lat="48.08243" lon="7.0514">
        <ele>1220.86</ele>
        <time>2021-01-04T12:24:43.000Z</time>
      </trkpt>
      <trkpt lat="48.08253" lon="7.05149">
        <ele>1222.84</ele>
        <time>2021-01-04T12:25:05.000Z</time>
      </trkpt>
      <trkpt lat="48.08262" lon="7.0516">
        <ele>1223.79</ele>
        <time>2021-01-04T12:25:23.000Z</time>
      </trkpt>
      <trkpt lat="48.08272" lon="7.05167">
        <ele>1223.91</ele>
        <time>2021-01-04T12:25:38.000Z</time>
      </trkpt>
      <trkpt lat="48.08283" lon="7.05176">
        <ele>1224.31</ele>
        <time>2021-01-04T12:25:59.000Z</time>
      </trkpt>
      <trkpt lat="48.08293" lon="7.05183">
        <ele>1225.81</ele>
        <time>2021-01-04T12:26:17.000Z</time>
      </trkpt>
      <trkpt lat="48.08303" lon="7.05191">
        <ele>1228.24</ele>
        <time>2021-01-04T12:26:37.000Z</time>
      </trkpt>
      <trkpt lat="48.08313" lon="7.05197">
        <ele>1231.41</ele>
        <time>2021-01-04T12:26:54.000Z</time>
      </trkpt>
      <trkpt lat="48.08322" lon="7.052">
        <ele>1232.41</ele>
        <time>2021-01-04T12:27:12.000Z</time>
      </trkpt>
      <trkpt lat="48.08333" lon="7.05207">
        <ele>1233.76</ele>
        <time>2021-01-04T12:27:26.000Z</time>
      </trkpt>
      <trkpt lat="48.08345" lon="7.0521">
        <ele>1235.46</ele>
        <time>2021-01-04T12:27:40.000Z</time>
      </trkpt>
      <trkpt lat="48.08355" lon="7.05218">
        <ele>1237.64</ele>
        <time>2021-01-04T12:28:27.000Z</time>
      </trkpt>
      <trkpt lat="48.08367" lon="7.05223">
        <ele>1239.14</ele>
        <time>2021-01-04T12:28:45.000Z</time>
      </trkpt>
      <trkpt lat="48.08376" lon="7.05225">
        <ele>1240.23</ele>
        <time>2021-01-04T12:29:06.000Z</time>
      </trkpt>
      <trkpt lat="48.08386" lon="7.05222">
        <ele>1240.41</ele>
        <time>2021-01-04T12:29:15.000Z</time>
      </trkpt>
      <trkpt lat="48.08394" lon="7.05218">
        <ele>1240.59</ele>
        <time>2021-01-04T12:29:22.000Z</time>
      </trkpt>
      <trkpt lat="48.08403" lon="7.05213">
        <ele>1240.81</ele>
        <time>2021-01-04T12:29:30.000Z</time>
      </trkpt>
      <trkpt lat="48.08412" lon="7.05212">
        <ele>1240.96</ele>
        <time>2021-01-04T12:29:43.000Z</time>
      </trkpt>
      <trkpt lat="48.08422" lon="7.05212">
        <ele>1241.01</ele>
        <time>2021-01-04T12:29:52.000Z</time>
      </trkpt>
      <trkpt lat="48.08431" lon="7.05211">
        <ele>1241.18</ele>
        <time>2021-01-04T12:30:01.000Z</time>
      </trkpt>
      <trkpt lat="48.08441" lon="7.0521">
        <ele>1240.74</ele>
        <time>2021-01-04T12:30:10.000Z</time>
      </trkpt>
      <trkpt lat="48.0845" lon="7.05211">
        <ele>1239.84</ele>
        <time>2021-01-04T12:30:18.000Z</time>
      </trkpt>
      <trkpt lat="48.08459" lon="7.05212">
        <ele>1239.4</ele>
        <time>2021-01-04T12:30:27.000Z</time>
      </trkpt>
      <trkpt lat="48.08469" lon="7.05216">
        <ele>1237.51</ele>
        <time>2021-01-04T12:30:37.000Z</time>
      </trkpt>
      <trkpt lat="48.08478" lon="7.0522">
        <ele>1236.19</ele>
        <time>2021-01-04T12:30:43.000Z</time>
      </trkpt>
      <trkpt lat="48.08489" lon="7.05223">
        <ele>1233.43</ele>
        <time>2021-01-04T12:30:49.000Z</time>
      </trkpt>
      <trkpt lat="48.085" lon="7.05221">
        <ele>1226.45</ele>
        <time>2021-01-04T12:30:58.000Z</time>
      </trkpt>
      <trkpt lat="48.08511" lon="7.05223">
        <ele>1224.34</ele>
        <time>2021-01-04T12:31:03.000Z</time>
      </trkpt>
      <trkpt lat="48.08526" lon="7.05226">
        <ele>1219.91</ele>
        <time>2021-01-04T12:31:08.000Z</time>
      </trkpt>
      <trkpt lat="48.08536" lon="7.05227">
        <ele>1215.23</ele>
        <time>2021-01-04T12:31:13.000Z</time>
      </trkpt>
      <trkpt lat="48.08549" lon="7.05223">
        <ele>1210.43</ele>
        <time>2021-01-04T12:31:18.000Z</time>
      </trkpt>
      <trkpt lat="48.08559" lon="7.05223">
        <ele>1206.21</ele>
        <time>2021-01-04T12:31:24.000Z</time>
      </trkpt>
      <trkpt lat="48.0857" lon="7.05225">
        <ele>1204.99</ele>
        <time>2021-01-04T12:31:44.000Z</time>
      </trkpt>
      <trkpt lat="48.08572" lon="7.05239">
        <ele>1208.67</ele>
        <time>2021-01-04T12:32:10.000Z</time>
      </trkpt>
      <trkpt lat="48.08579" lon="7.05249">
        <ele>1208.54</ele>
        <time>2021-01-04T12:32:16.000Z</time>
      </trkpt>
      <trkpt lat="48.08592" lon="7.05265">
        <ele>1208.66</ele>
        <time>2021-01-04T12:32:21.000Z</time>
      </trkpt>
      <trkpt lat="48.0861" lon="7.05275">
        <ele>1207.34</ele>
        <time>2021-01-04T12:32:26.000Z</time>
      </trkpt>
      <trkpt lat="48.08622" lon="7.05289">
        <ele>1199.45</ele>
        <time>2021-01-04T12:32:31.000Z</time>
      </trkpt>
      <trkpt lat="48.0863" lon="7.053">
        <ele>1195.1</ele>
        <time>2021-01-04T12:32:36.000Z</time>
      </trkpt>
      <trkpt lat="48.08637" lon="7.0531">
        <ele>1193.84</ele>
        <time>2021-01-04T12:33:04.000Z</time>
      </trkpt>
      <trkpt lat="48.08647" lon="7.05308">
        <ele>1194.84</ele>
        <time>2021-01-04T12:34:05.000Z</time>
      </trkpt>
      <trkpt lat="48.08658" lon="7.05314">
        <ele>1193.76</ele>
        <time>2021-01-04T12:34:14.000Z</time>
      </trkpt>
      <trkpt lat="48.08671" lon="7.05328">
        <ele>1191.67</ele>
        <time>2021-01-04T12:34:19.000Z</time>
      </trkpt>
      <trkpt lat="48.08679" lon="7.05343">
        <ele>1187.77</ele>
        <time>2021-01-04T12:34:24.000Z</time>
      </trkpt>
      <trkpt lat="48.08689" lon="7.05354">
        <ele>1183.69</ele>
        <time>2021-01-04T12:34:34.000Z</time>
      </trkpt>
      <trkpt lat="48.08694" lon="7.05374">
        <ele>1180.21</ele>
        <time>2021-01-04T12:34:46.000Z</time>
      </trkpt>
      <trkpt lat="48.08704" lon="7.05386">
        <ele>1179.57</ele>
        <time>2021-01-04T12:34:51.000Z</time>
      </trkpt>
      <trkpt lat="48.08715" lon="7.05406">
        <ele>1179.46</ele>
        <time>2021-01-04T12:35:04.000Z</time>
      </trkpt>
      <trkpt lat="48.08721" lon="7.0542">
        <ele>1180.96</ele>
        <time>2021-01-04T12:35:23.000Z</time>
      </trkpt>
      <trkpt lat="48.08728" lon="7.05435">
        <ele>1182.39</ele>
        <time>2021-01-04T12:35:36.000Z</time>
      </trkpt>
      <trkpt lat="48.0873" lon="7.05452">
        <ele>1182.91</ele>
        <time>2021-01-04T12:35:52.000Z</time>
      </trkpt>
      <trkpt lat="48.08731" lon="7.0547">
        <ele>1182.06</ele>
        <time>2021-01-04T12:36:07.000Z</time>
      </trkpt>
      <trkpt lat="48.08731" lon="7.05487">
        <ele>1180.56</ele>
        <time>2021-01-04T12:36:30.000Z</time>
      </trkpt>
      <trkpt lat="48.08729" lon="7.05504">
        <ele>1179.79</ele>
        <time>2021-01-04T12:36:45.000Z</time>
      </trkpt>
      <trkpt lat="48.08728" lon="7.05521">
        <ele>1177.86</ele>
        <time>2021-01-04T12:37:05.000Z</time>
      </trkpt>
      <trkpt lat="48.08726" lon="7.05538">
        <ele>1174.99</ele>
        <time>2021-01-04T12:37:19.000Z</time>
      </trkpt>
      <trkpt lat="48.08727" lon="7.05555">
        <ele>1172.34</ele>
        <time>2021-01-04T12:37:35.000Z</time>
      </trkpt>
      <trkpt lat="48.08726" lon="7.05575">
        <ele>1172.54</ele>
        <time>2021-01-04T12:37:48.000Z</time>
      </trkpt>
      <trkpt lat="48.08728" lon="7.05593">
        <ele>1173.49</ele>
        <time>2021-01-04T12:38:01.000Z</time>
      </trkpt>
      <trkpt lat="48.08733" lon="7.05614">
        <ele>1177.86</ele>
        <time>2021-01-04T12:40:37.000Z</time>
      </trkpt>
      <trkpt lat="48.08742" lon="7.05621">
        <ele>1188.09</ele>
        <time>2021-01-04T12:50:59.000Z</time>
      </trkpt>
      <trkpt lat="48.08753" lon="7.05631">
        <ele>1186.44</ele>
        <time>2021-01-04T12:51:04.000Z</time>
      </trkpt>
      <trkpt lat="48.08763" lon="7.05641">
        <ele>1183.5</ele>
        <time>2021-01-04T12:51:09.000Z</time>
      </trkpt>
      <trkpt lat="48.08775" lon="7.05658">
        <ele>1178.41</ele>
        <time>2021-01-04T12:51:21.000Z</time>
      </trkpt>
      <trkpt lat="48.08788" lon="7.05674">
        <ele>1175.84</ele>
        <time>2021-01-04T12:51:27.000Z</time>
      </trkpt>
      <trkpt lat="48.08799" lon="7.05681">
        <ele>1176.11</ele>
        <time>2021-01-04T12:51:32.000Z</time>
      </trkpt>
      <trkpt lat="48.08806" lon="7.0569">
        <ele>1175.74</ele>
        <time>2021-01-04T12:52:47.000Z</time>
      </trkpt>
      <trkpt lat="48.08813" lon="7.05701">
        <ele>1174.41</ele>
        <time>2021-01-04T12:53:23.000Z</time>
      </trkpt>
      <trkpt lat="48.0882" lon="7.0571">
        <ele>1172.61</ele>
        <time>2021-01-04T12:54:27.000Z</time>
      </trkpt>
      <trkpt lat="48.08871" lon="7.05767">
        <ele>1148.69</ele>
        <time>2021-01-04T12:55:01.000Z</time>
      </trkpt>
      <trkpt lat="48.08892" lon="7.05777">
        <ele>1156.66</ele>
        <time>2021-01-04T12:55:06.000Z</time>
      </trkpt>
      <trkpt lat="48.08895" lon="7.05763">
        <ele>1168.61</ele>
        <time>2021-01-04T12:55:11.000Z</time>
      </trkpt>
      <trkpt lat="48.08905" lon="7.05764">
        <ele>1172.66</ele>
        <time>2021-01-04T12:56:15.000Z</time>
      </trkpt>
      <trkpt lat="48.08915" lon="7.05769">
        <ele>1173.94</ele>
        <time>2021-01-04T12:56:46.000Z</time>
      </trkpt>
      <trkpt lat="48.08925" lon="7.0578">
        <ele>1173.66</ele>
        <time>2021-01-04T12:57:09.000Z</time>
      </trkpt>
      <trkpt lat="48.08933" lon="7.05787">
        <ele>1172.8</ele>
        <time>2021-01-04T12:57:16.000Z</time>
      </trkpt>
      <trkpt lat="48.08942" lon="7.05793">
        <ele>1170.92</ele>
        <time>2021-01-04T12:57:21.000Z</time>
      </trkpt>
      <trkpt lat="48.0895" lon="7.058">
        <ele>1168.91</ele>
        <time>2021-01-04T12:57:30.000Z</time>
      </trkpt>
      <trkpt lat="48.0896" lon="7.05803">
        <ele>1167.17</ele>
        <time>2021-01-04T12:57:36.000Z</time>
      </trkpt>
      <trkpt lat="48.08975" lon="7.05812">
        <ele>1163.91</ele>
        <time>2021-01-04T12:57:41.000Z</time>
      </trkpt>
      <trkpt lat="48.08989" lon="7.05819">
        <ele>1159.71</ele>
        <time>2021-01-04T12:57:46.000Z</time>
      </trkpt>
      <trkpt lat="48.09" lon="7.05827">
        <ele>1155.07</ele>
        <time>2021-01-04T12:57:53.000Z</time>
      </trkpt>
      <trkpt lat="48.0901" lon="7.05834">
        <ele>1152.19</ele>
        <time>2021-01-04T12:59:47.000Z</time>
      </trkpt>
      <trkpt lat="48.09019" lon="7.05842">
        <ele>1150.97</ele>
        <time>2021-01-04T13:00:10.000Z</time>
      </trkpt>
      <trkpt lat="48.09029" lon="7.05843">
        <ele>1150.39</ele>
        <time>2021-01-04T13:00:17.000Z</time>
      </trkpt>
      <trkpt lat="48.09048" lon="7.05858">
        <ele>1149.55</ele>
        <time>2021-01-04T13:00:22.000Z</time>
      </trkpt>
      <trkpt lat="48.09069" lon="7.05875">
        <ele>1150.35</ele>
        <time>2021-01-04T13:00:27.000Z</time>
      </trkpt>
      <trkpt lat="48.09099" lon="7.05901">
        <ele>1157.88</ele>
        <time>2021-01-04T13:00:32.000Z</time>
      </trkpt>
      <trkpt lat="48.09112" lon="7.059">
        <ele>1165.92</ele>
        <time>2021-01-04T13:00:37.000Z</time>
      </trkpt>
      <trkpt lat="48.09124" lon="7.05909">
        <ele>1171.59</ele>
        <time>2021-01-04T13:00:55.000Z</time>
      </trkpt>
      <trkpt lat="48.09131" lon="7.0592">
        <ele>1171.29</ele>
        <time>2021-01-04T13:01:07.000Z</time>
      </trkpt>
      <trkpt lat="48.0914" lon="7.0593">
        <ele>1170.44</ele>
        <time>2021-01-04T13:01:26.000Z</time>
      </trkpt>
      <trkpt lat="48.0915" lon="7.0594">
        <ele>1169.14</ele>
        <time>2021-01-04T13:01:39.000Z</time>
      </trkpt>
      <trkpt lat="48.09139" lon="7.0595">
        <ele>1168.75</ele>
        <time>2021-01-04T13:01:44.000Z</time>
      </trkpt>
      <trkpt lat="48.09174" lon="7.05952">
        <ele>1169.84</ele>
        <time>2021-01-04T13:01:49.000Z</time>
      </trkpt>
      <trkpt lat="48.09183" lon="7.05969">
        <ele>1188.37</ele>
        <time>2021-01-04T13:02:21.000Z</time>
      </trkpt>
      <trkpt lat="48.09192" lon="7.0598">
        <ele>1193.24</ele>
        <time>2021-01-04T13:02:36.000Z</time>
      </trkpt>
      <trkpt lat="48.092" lon="7.05994">
        <ele>1197.12</ele>
        <time>2021-01-04T13:02:51.000Z</time>
      </trkpt>
      <trkpt lat="48.09209" lon="7.06">
        <ele>1198.74</ele>
        <time>2021-01-04T13:04:17.000Z</time>
      </trkpt>
      <trkpt lat="48.09217" lon="7.06011">
        <ele>1200.07</ele>
        <time>2021-01-04T13:04:36.000Z</time>
      </trkpt>
      <trkpt lat="48.09225" lon="7.06022">
        <ele>1199.19</ele>
        <time>2021-01-04T13:04:56.000Z</time>
      </trkpt>
      <trkpt lat="48.09234" lon="7.06032">
        <ele>1197.39</ele>
        <time>2021-01-04T13:05:11.000Z</time>
      </trkpt>
      <trkpt lat="48.09244" lon="7.06042">
        <ele>1195.22</ele>
        <time>2021-01-04T13:05:23.000Z</time>
      </trkpt>
      <trkpt lat="48.09254" lon="7.06054">
        <ele>1193.02</ele>
        <time>2021-01-04T13:05:34.000Z</time>
      </trkpt>
      <trkpt lat="48.09264" lon="7.06065">
        <ele>1191.29</ele>
        <time>2021-01-04T13:05:44.000Z</time>
      </trkpt>
      <trkpt lat="48.09275" lon="7.06071">
        <ele>1189.87</ele>
        <time>2021-01-04T13:06:47.000Z</time>
      </trkpt>
      <trkpt lat="48.09269" lon="7.06085">
        <ele>1184.45</ele>
        <time>2021-01-04T13:08:10.000Z</time>
      </trkpt>
      <trkpt lat="48.0926" lon="7.06099">
        <ele>1180.42</ele>
        <time>2021-01-04T13:08:15.000Z</time>
      </trkpt>
      <trkpt lat="48.09254" lon="7.06112">
        <ele>1175.79</ele>
        <time>2021-01-04T13:08:25.000Z</time>
      </trkpt>
      <trkpt lat="48.09249" lon="7.06132">
        <ele>1170.84</ele>
        <time>2021-01-04T13:08:30.000Z</time>
      </trkpt>
      <trkpt lat="48.09249" lon="7.06155">
        <ele>1165.76</ele>
        <time>2021-01-04T13:08:35.000Z</time>
      </trkpt>
      <trkpt lat="48.09251" lon="7.06176">
        <ele>1160.53</ele>
        <time>2021-01-04T13:08:40.000Z</time>
      </trkpt>
      <trkpt lat="48.09256" lon="7.0619">
        <ele>1155.01</ele>
        <time>2021-01-04T13:08:45.000Z</time>
      </trkpt>
      <trkpt lat="48.09262" lon="7.06205">
        <ele>1151.06</ele>
        <time>2021-01-04T13:08:50.000Z</time>
      </trkpt>
      <trkpt lat="48.09265" lon="7.06222">
        <ele>1152.64</ele>
        <time>2021-01-04T13:10:26.000Z</time>
      </trkpt>
      <trkpt lat="48.09274" lon="7.06229">
        <ele>1152.6</ele>
        <time>2021-01-04T13:10:33.000Z</time>
      </trkpt>
      <trkpt lat="48.09291" lon="7.06231">
        <ele>1151.39</ele>
        <time>2021-01-04T13:10:38.000Z</time>
      </trkpt>
      <trkpt lat="48.09313" lon="7.06238">
        <ele>1148.93</ele>
        <time>2021-01-04T13:10:43.000Z</time>
      </trkpt>
      <trkpt lat="48.09338" lon="7.0625">
        <ele>1146.28</ele>
        <time>2021-01-04T13:10:48.000Z</time>
      </trkpt>
      <trkpt lat="48.09347" lon="7.06253">
        <ele>1141.65</ele>
        <time>2021-01-04T13:10:55.000Z</time>
      </trkpt>
      <trkpt lat="48.0936" lon="7.06259">
        <ele>1139.13</ele>
        <time>2021-01-04T13:11:00.000Z</time>
      </trkpt>
      <trkpt lat="48.09381" lon="7.06286">
        <ele>1134.13</ele>
        <time>2021-01-04T13:11:05.000Z</time>
      </trkpt>
      <trkpt lat="48.09398" lon="7.06317">
        <ele>1130.7</ele>
        <time>2021-01-04T13:11:10.000Z</time>
      </trkpt>
      <trkpt lat="48.09398" lon="7.06352">
        <ele>1127.3</ele>
        <time>2021-01-04T13:11:15.000Z</time>
      </trkpt>
      <trkpt lat="48.09397" lon="7.06368">
        <ele>1128.74</ele>
        <time>2021-01-04T13:11:33.000Z</time>
      </trkpt>
      <trkpt lat="48.09397" lon="7.06384">
        <ele>1129.16</ele>
        <time>2021-01-04T13:11:38.000Z</time>
      </trkpt>
      <trkpt lat="48.09397" lon="7.06406">
        <ele>1133.22</ele>
        <time>2021-01-04T13:12:09.000Z</time>
      </trkpt>
      <trkpt lat="48.09393" lon="7.06422">
        <ele>1136.09</ele>
        <time>2021-01-04T13:12:17.000Z</time>
      </trkpt>
      <trkpt lat="48.09384" lon="7.06444">
        <ele>1137.7</ele>
        <time>2021-01-04T13:12:22.000Z</time>
      </trkpt>
      <trkpt lat="48.09375" lon="7.06477">
        <ele>1134.9</ele>
        <time>2021-01-04T13:12:27.000Z</time>
      </trkpt>
      <trkpt lat="48.09368" lon="7.06504">
        <ele>1127.4</ele>
        <time>2021-01-04T13:12:32.000Z</time>
      </trkpt>
      <trkpt lat="48.09354" lon="7.06538">
        <ele>1122.79</ele>
        <time>2021-01-04T13:12:37.000Z</time>
      </trkpt>
      <trkpt lat="48.09339" lon="7.06568">
        <ele>1119.89</ele>
        <time>2021-01-04T13:12:42.000Z</time>
      </trkpt>
      <trkpt lat="48.09321" lon="7.06593">
        <ele>1115.3</ele>
        <time>2021-01-04T13:12:47.000Z</time>
      </trkpt>
      <trkpt lat="48.09301" lon="7.0662">
        <ele>1112.24</ele>
        <time>2021-01-04T13:12:52.000Z</time>
      </trkpt>
      <trkpt lat="48.09278" lon="7.06648">
        <ele>1107.32</ele>
        <time>2021-01-04T13:12:57.000Z</time>
      </trkpt>
      <trkpt lat="48.09249" lon="7.06674">
        <ele>1103.41</ele>
        <time>2021-01-04T13:13:02.000Z</time>
      </trkpt>
      <trkpt lat="48.09224" lon="7.06695">
        <ele>1100.91</ele>
        <time>2021-01-04T13:13:07.000Z</time>
      </trkpt>
      <trkpt lat="48.09214" lon="7.06725">
        <ele>1097.15</ele>
        <time>2021-01-04T13:13:12.000Z</time>
      </trkpt>
      <trkpt lat="48.09202" lon="7.06754">
        <ele>1093.17</ele>
        <time>2021-01-04T13:13:17.000Z</time>
      </trkpt>
      <trkpt lat="48.09194" lon="7.06773">
        <ele>1086.84</ele>
        <time>2021-01-04T13:13:22.000Z</time>
      </trkpt>
      <trkpt lat="48.09184" lon="7.06795">
        <ele>1088.57</ele>
        <time>2021-01-04T13:14:04.000Z</time>
      </trkpt>
      <trkpt lat="48.09178" lon="7.06806">
        <ele>1090.22</ele>
        <time>2021-01-04T13:14:21.000Z</time>
      </trkpt>
      <trkpt lat="48.09168" lon="7.06825">
        <ele>1090.02</ele>
        <time>2021-01-04T13:14:26.000Z</time>
      </trkpt>
      <trkpt lat="48.09169" lon="7.06843">
        <ele>1090.14</ele>
        <time>2021-01-04T13:14:31.000Z</time>
      </trkpt>
      <trkpt lat="48.09175" lon="7.06864">
        <ele>1092.87</ele>
        <time>2021-01-04T13:14:51.000Z</time>
      </trkpt>
      <trkpt lat="48.09181" lon="7.06875">
        <ele>1101.66</ele>
        <time>2021-01-04T13:22:03.000Z</time>
      </trkpt>
      <trkpt lat="48.09172" lon="7.06875">
        <ele>1112.42</ele>
        <time>2021-01-04T13:29:23.000Z</time>
      </trkpt>
      <trkpt lat="48.09158" lon="7.06867">
        <ele>1113.32</ele>
        <time>2021-01-04T13:29:28.000Z</time>
      </trkpt>
      <trkpt lat="48.09169" lon="7.0688">
        <ele>1120.17</ele>
        <time>2021-01-04T13:29:57.000Z</time>
      </trkpt>
      <trkpt lat="48.09169" lon="7.06894">
        <ele>1121.89</ele>
        <time>2021-01-04T13:31:11.000Z</time>
      </trkpt>
      <trkpt lat="48.09154" lon="7.0689">
        <ele>1119.18</ele>
        <time>2021-01-04T13:31:16.000Z</time>
      </trkpt>
      <trkpt lat="48.09134" lon="7.06879">
        <ele>1110.59</ele>
        <time>2021-01-04T13:31:21.000Z</time>
      </trkpt>
      <trkpt lat="48.09115" lon="7.06867">
        <ele>1103.02</ele>
        <time>2021-01-04T13:31:26.000Z</time>
      </trkpt>
      <trkpt lat="48.09094" lon="7.06853">
        <ele>1094.7</ele>
        <time>2021-01-04T13:31:31.000Z</time>
      </trkpt>
      <trkpt lat="48.09066" lon="7.06843">
        <ele>1087.78</ele>
        <time>2021-01-04T13:31:36.000Z</time>
      </trkpt>
      <trkpt lat="48.09035" lon="7.0684">
        <ele>1081.54</ele>
        <time>2021-01-04T13:31:41.000Z</time>
      </trkpt>
      <trkpt lat="48.09003" lon="7.06845">
        <ele>1075.3</ele>
        <time>2021-01-04T13:31:46.000Z</time>
      </trkpt>
      <trkpt lat="48.08978" lon="7.06858">
        <ele>1070.8</ele>
        <time>2021-01-04T13:31:51.000Z</time>
      </trkpt>
      <trkpt lat="48.08964" lon="7.06861">
        <ele>1064.3</ele>
        <time>2021-01-04T13:31:56.000Z</time>
      </trkpt>
      <trkpt lat="48.08955" lon="7.06852">
        <ele>1065.4</ele>
        <time>2021-01-04T13:32:41.000Z</time>
      </trkpt>
      <trkpt lat="48.08937" lon="7.06839">
        <ele>1064.11</ele>
        <time>2021-01-04T13:32:46.000Z</time>
      </trkpt>
      <trkpt lat="48.08916" lon="7.0683">
        <ele>1062.27</ele>
        <time>2021-01-04T13:32:51.000Z</time>
      </trkpt>
      <trkpt lat="48.08898" lon="7.06824">
        <ele>1056.94</ele>
        <time>2021-01-04T13:32:56.000Z</time>
      </trkpt>
      <trkpt lat="48.08889" lon="7.06829">
        <ele>1056</ele>
        <time>2021-01-04T13:33:29.000Z</time>
      </trkpt>
      <trkpt lat="48.08868" lon="7.06821">
        <ele>1052.02</ele>
        <time>2021-01-04T13:33:34.000Z</time>
      </trkpt>
      <trkpt lat="48.08844" lon="7.06808">
        <ele>1045.53</ele>
        <time>2021-01-04T13:33:39.000Z</time>
      </trkpt>
      <trkpt lat="48.08824" lon="7.06786">
        <ele>1038.89</ele>
        <time>2021-01-04T13:33:44.000Z</time>
      </trkpt>
      <trkpt lat="48.08809" lon="7.06762">
        <ele>1034.77</ele>
        <time>2021-01-04T13:33:49.000Z</time>
      </trkpt>
      <trkpt lat="48.08797" lon="7.06748">
        <ele>1027.7</ele>
        <time>2021-01-04T13:33:54.000Z</time>
      </trkpt>
      <trkpt lat="48.08778" lon="7.06727">
        <ele>1019.89</ele>
        <time>2021-01-04T13:33:59.000Z</time>
      </trkpt>
      <trkpt lat="48.08765" lon="7.06706">
        <ele>1011.87</ele>
        <time>2021-01-04T13:34:04.000Z</time>
      </trkpt>
      <trkpt lat="48.08758" lon="7.06684">
        <ele>1003.38</ele>
        <time>2021-01-04T13:34:09.000Z</time>
      </trkpt>
      <trkpt lat="48.08765" lon="7.06656">
        <ele>997.82</ele>
        <time>2021-01-04T13:34:14.000Z</time>
      </trkpt>
      <trkpt lat="48.08778" lon="7.0664">
        <ele>988.96</ele>
        <time>2021-01-04T13:34:19.000Z</time>
      </trkpt>
      <trkpt lat="48.08776" lon="7.06618">
        <ele>981.26</ele>
        <time>2021-01-04T13:34:24.000Z</time>
      </trkpt>
      <trkpt lat="48.08759" lon="7.06595">
        <ele>978.3</ele>
        <time>2021-01-04T13:34:29.000Z</time>
      </trkpt>
      <trkpt lat="48.08748" lon="7.06572">
        <ele>976.73</ele>
        <time>2021-01-04T13:34:34.000Z</time>
      </trkpt>
      <trkpt lat="48.08738" lon="7.06547">
        <ele>972.46</ele>
        <time>2021-01-04T13:34:39.000Z</time>
      </trkpt>
      <trkpt lat="48.08726" lon="7.06512">
        <ele>968.64</ele>
        <time>2021-01-04T13:34:44.000Z</time>
      </trkpt>
      <trkpt lat="48.08718" lon="7.06481">
        <ele>967.76</ele>
        <time>2021-01-04T13:34:49.000Z</time>
      </trkpt>
      <trkpt lat="48.08715" lon="7.06461">
        <ele>967.4</ele>
        <time>2021-01-04T13:34:54.000Z</time>
      </trkpt>
      <trkpt lat="48.08718" lon="7.06436">
        <ele>971.94</ele>
        <time>2021-01-04T13:35:31.000Z</time>
      </trkpt>
      <trkpt lat="48.08703" lon="7.06409">
        <ele>973.22</ele>
        <time>2021-01-04T13:35:36.000Z</time>
      </trkpt>
      <trkpt lat="48.08714" lon="7.064">
        <ele>974.89</ele>
        <time>2021-01-04T13:35:41.000Z</time>
      </trkpt>
      <trkpt lat="48.08705" lon="7.06406">
        <ele>978.24</ele>
        <time>2021-01-04T13:35:47.000Z</time>
      </trkpt>
      <trkpt lat="48.08702" lon="7.06421">
        <ele>980.67</ele>
        <time>2021-01-04T13:36:07.000Z</time>
      </trkpt>
      <trkpt lat="48.08708" lon="7.06406">
        <ele>981.67</ele>
        <time>2021-01-04T13:36:12.000Z</time>
      </trkpt>
      <trkpt lat="48.08717" lon="7.06402">
        <ele>989.73</ele>
        <time>2021-01-04T13:36:26.000Z</time>
      </trkpt>
      <trkpt lat="48.08712" lon="7.06387">
        <ele>997.34</ele>
        <time>2021-01-04T13:36:56.000Z</time>
      </trkpt>
      <trkpt lat="48.08708" lon="7.06368">
        <ele>998.31</ele>
        <time>2021-01-04T13:37:01.000Z</time>
      </trkpt>
      <trkpt lat="48.08703" lon="7.06349">
        <ele>999.39</ele>
        <time>2021-01-04T13:37:06.000Z</time>
      </trkpt>
      <trkpt lat="48.08696" lon="7.06333">
        <ele>1000.45</ele>
        <time>2021-01-04T13:37:11.000Z</time>
      </trkpt>
      <trkpt lat="48.08692" lon="7.06319">
        <ele>1000.47</ele>
        <time>2021-01-04T13:37:16.000Z</time>
      </trkpt>
      <trkpt lat="48.08684" lon="7.06308">
        <ele>1003.96</ele>
        <time>2021-01-04T13:37:53.000Z</time>
      </trkpt>
      <trkpt lat="48.08673" lon="7.06311">
        <ele>1004.51</ele>
        <time>2021-01-04T13:37:59.000Z</time>
      </trkpt>
      <trkpt lat="48.08662" lon="7.06318">
        <ele>1001.19</ele>
        <time>2021-01-04T13:38:08.000Z</time>
      </trkpt>
      <trkpt lat="48.08653" lon="7.06326">
        <ele>999.31</ele>
        <time>2021-01-04T13:38:14.000Z</time>
      </trkpt>
      <trkpt lat="48.08642" lon="7.06338">
        <ele>997.81</ele>
        <time>2021-01-04T13:38:19.000Z</time>
      </trkpt>
      <trkpt lat="48.0863" lon="7.06358">
        <ele>997.21</ele>
        <time>2021-01-04T13:38:24.000Z</time>
      </trkpt>
      <trkpt lat="48.08615" lon="7.06368">
        <ele>1000.12</ele>
        <time>2021-01-04T13:38:29.000Z</time>
      </trkpt>
      <trkpt lat="48.08605" lon="7.06359">
        <ele>1000.18</ele>
        <time>2021-01-04T13:38:34.000Z</time>
      </trkpt>
      <trkpt lat="48.08601" lon="7.06346">
        <ele>1000.81</ele>
        <time>2021-01-04T13:38:39.000Z</time>
      </trkpt>
      <trkpt lat="48.08599" lon="7.0633">
        <ele>1001.94</ele>
        <time>2021-01-04T13:38:59.000Z</time>
      </trkpt>
      <trkpt lat="48.08599" lon="7.06316">
        <ele>1002.96</ele>
        <time>2021-01-04T13:40:27.000Z</time>
      </trkpt>
      <trkpt lat="48.086" lon="7.063">
        <ele>1003.21</ele>
        <time>2021-01-04T13:40:50.000Z</time>
      </trkpt>
      <trkpt lat="48.08599" lon="7.06282">
        <ele>1002.26</ele>
        <time>2021-01-04T13:41:02.000Z</time>
      </trkpt>
      <trkpt lat="48.08603" lon="7.06267">
        <ele>1000.81</ele>
        <time>2021-01-04T13:41:24.000Z</time>
      </trkpt>
      <trkpt lat="48.08601" lon="7.06248">
        <ele>999.16</ele>
        <time>2021-01-04T13:41:38.000Z</time>
      </trkpt>
      <trkpt lat="48.08596" lon="7.06236">
        <ele>998.59</ele>
        <time>2021-01-04T13:41:55.000Z</time>
      </trkpt>
      <trkpt lat="48.0859" lon="7.06222">
        <ele>997.81</ele>
        <time>2021-01-04T13:42:09.000Z</time>
      </trkpt>
      <trkpt lat="48.0858" lon="7.06212">
        <ele>996.56</ele>
        <time>2021-01-04T13:42:20.000Z</time>
      </trkpt>
      <trkpt lat="48.08573" lon="7.06196">
        <ele>994.96</ele>
        <time>2021-01-04T13:42:34.000Z</time>
      </trkpt>
      <trkpt lat="48.08567" lon="7.06183">
        <ele>992.44</ele>
        <time>2021-01-04T13:43:18.000Z</time>
      </trkpt>
      <trkpt lat="48.08568" lon="7.06167">
        <ele>990.16</ele>
        <time>2021-01-04T13:43:51.000Z</time>
      </trkpt>
      <trkpt lat="48.08559" lon="7.06163">
        <ele>988.09</ele>
        <time>2021-01-04T13:44:30.000Z</time>
      </trkpt>
      <trkpt lat="48.08548" lon="7.06167">
        <ele>986.84</ele>
        <time>2021-01-04T13:44:47.000Z</time>
      </trkpt>
      <trkpt lat="48.08538" lon="7.06165">
        <ele>983.39</ele>
        <time>2021-01-04T13:45:23.000Z</time>
      </trkpt>
      <trkpt lat="48.08537" lon="7.06152">
        <ele>980.99</ele>
        <time>2021-01-04T13:45:31.000Z</time>
      </trkpt>
      <trkpt lat="48.08531" lon="7.06137">
        <ele>979.51</ele>
        <time>2021-01-04T13:45:40.000Z</time>
      </trkpt>
      <trkpt lat="48.08514" lon="7.0613">
        <ele>977.39</ele>
        <time>2021-01-04T13:45:50.000Z</time>
      </trkpt>
      <trkpt lat="48.08503" lon="7.06121">
        <ele>975.26</ele>
        <time>2021-01-04T13:46:01.000Z</time>
      </trkpt>
      <trkpt lat="48.08489" lon="7.06113">
        <ele>972.61</ele>
        <time>2021-01-04T13:46:09.000Z</time>
      </trkpt>
      <trkpt lat="48.08474" lon="7.06106">
        <ele>970.11</ele>
        <time>2021-01-04T13:46:16.000Z</time>
      </trkpt>
      <trkpt lat="48.08459" lon="7.06093">
        <ele>967.86</ele>
        <time>2021-01-04T13:46:23.000Z</time>
      </trkpt>
      <trkpt lat="48.08441" lon="7.06086">
        <ele>966.24</ele>
        <time>2021-01-04T13:46:29.000Z</time>
      </trkpt>
      <trkpt lat="48.08427" lon="7.06076">
        <ele>965.42</ele>
        <time>2021-01-04T13:46:34.000Z</time>
      </trkpt>
      <trkpt lat="48.0842" lon="7.06064">
        <ele>964.32</ele>
        <time>2021-01-04T13:46:39.000Z</time>
      </trkpt>
      <trkpt lat="48.0841" lon="7.0605">
        <ele>963.69</ele>
        <time>2021-01-04T13:46:46.000Z</time>
      </trkpt>
      <trkpt lat="48.084" lon="7.06027">
        <ele>964.29</ele>
        <time>2021-01-04T13:46:53.000Z</time>
      </trkpt>
      <trkpt lat="48.0839" lon="7.06011">
        <ele>965.61</ele>
        <time>2021-01-04T13:47:02.000Z</time>
      </trkpt>
      <trkpt lat="48.08374" lon="7.05987">
        <ele>970.38</ele>
        <time>2021-01-04T13:47:07.000Z</time>
      </trkpt>
      <trkpt lat="48.08364" lon="7.05987">
        <ele>973.05</ele>
        <time>2021-01-04T13:47:12.000Z</time>
      </trkpt>
      <trkpt lat="48.08357" lon="7.05997">
        <ele>979.45</ele>
        <time>2021-01-04T13:47:31.000Z</time>
      </trkpt>
      <trkpt lat="48.08355" lon="7.06003">
        <ele>981.34</ele>
        <time>2021-01-04T13:48:41.000Z</time>
      </trkpt>
    </trkseg>
  </trk>
</gpx>